Time;durP1;ratioP1;P1;durP2;ratioP2;P2;SDS_P1;SDS_P2;PMS_P1;PMS_P2;Temp;Humidity;BMP_temperature;BMP_pressure;BME280_temperature;BME280_humidity;BME280_pressure;Samples;Min_cycle;Max_cycle;Signal;HPM_P1;HPM_P2
2021/01/20 00:01:46;;;;;;;7.20;5.83;;;;;;;;;;5074442;28;20187;-87
2021/01/20 00:04:17;;;;;;;8.60;6.80;;;;;;;;;;5075690;28;20187;-87
2021/01/20 00:06:46;;;;;;;6.60;5.90;;;;;;;;;;5075529;28;20683;-88
2021/01/20 00:09:15;;;;;;;6.60;5.83;;;;;;;;;;5075524;28;20675;-87
2021/01/20 00:11:43;;;;;;;9.50;8.50;;;;;;;;;;5074323;28;20179;-88
2021/01/20 00:14:13;;;;;;;6.97;6.20;;;;;;;;;;5075586;28;20187;-87
2021/01/20 00:16:40;;;;;;;7.67;6.97;;;;;;;;;;5074650;28;20262;-87
2021/01/20 00:19:06;;;;;;;10.30;7.90;;;;;;;;;;5074324;28;20241;-87
2021/01/20 00:21:32;;;;;;;7.10;6.40;;;;;;;;;;5074499;28;20285;-87
2021/01/20 00:23:58;;;;;;;9.87;7.77;;;;;;;;;;5075620;28;20186;-87
2021/01/20 00:26:28;;;;;;;7.07;6.40;;;;;;;;;;5074082;28;20175;-87
2021/01/20 00:28:59;;;;;;;8.63;7.10;;;;;;;;;;5073917;28;20258;-87
2021/01/20 00:31:31;;;;;;;8.67;7.60;;;;;;;;;;5075108;28;20176;-87
2021/01/20 00:34:01;;;;;;;8.90;7.93;;;;;;;;;;5074139;28;20186;-87
2021/01/20 00:36:35;;;;;;;9.53;8.50;;;;;;;;;;5074719;28;20240;-87
2021/01/20 00:39:08;;;;;;;8.67;7.77;;;;;;;;;;5074415;28;20628;-87
2021/01/20 00:41:41;;;;;;;7.03;6.33;;;;;;;;;;5073722;28;20195;-87
2021/01/20 00:44:12;;;;;;;10.07;9.07;;;;;;;;;;5075032;28;20213;-87
2021/01/20 00:46:45;;;;;;;7.87;7.03;;;;;;;;;;5075098;28;20178;-87
2021/01/20 00:49:18;;;;;;;12.53;8.97;;;;;;;;;;5073557;28;20175;-87
2021/01/20 00:51:50;;;;;;;11.97;10.57;;;;;;;;;;5073475;28;20190;-87
2021/01/20 00:54:20;;;;;;;11.60;10.07;;;;;;;;;;5073441;28;20183;-87
2021/01/20 00:56:50;;;;;;;9.93;8.93;;;;;;;;;;5073364;28;20225;-87
2021/01/20 00:59:23;;;;;;;12.87;11.57;;;;;;;;;;5074564;28;20174;-87
2021/01/20 01:01:57;;;;;;;15.80;8.93;;;;;;;;;;5073244;28;20702;-87
2021/01/20 01:04:24;;;;;;;11.60;10.40;;;;;;;;;;5074573;28;20187;-87
2021/01/20 01:06:57;;;;;;;13.93;9.83;;;;;;;;;;5074436;28;20222;-87
2021/01/20 01:09:29;;;;;;;12.93;11.17;;;;;;;;;;5073277;28;20298;-87
2021/01/20 01:12:01;;;;;;;13.80;12.23;;;;;;;;;;5074967;28;20264;-87
2021/01/20 01:14:27;;;;;;;17.97;13.87;;;;;;;;;;5073025;28;20569;-87
2021/01/20 01:16:57;;;;;;;11.77;9.73;;;;;;;;;;5073141;28;20579;-87
2021/01/20 01:19:25;;;;;;;15.47;11.97;;;;;;;;;;5073048;28;20644;-87
2021/01/20 01:21:53;;;;;;;13.67;11.97;;;;;;;;;;5072958;28;20214;-88
2021/01/20 01:24:19;;;;;;;17.07;13.37;;;;;;;;;;5072917;28;20186;-87
2021/01/20 01:26:47;;;;;;;17.10;14.03;;;;;;;;;;5072768;28;20201;-87
2021/01/20 01:29:13;;;;;;;15.40;13.13;;;;;;;;;;5074456;28;20170;-87
2021/01/20 01:31:41;;;;;;;17.93;12.83;;;;;;;;;;5072836;28;20599;-87
2021/01/20 01:34:07;;;;;;;20.20;15.50;;;;;;;;;;5073911;28;20214;-87
2021/01/20 01:36:34;;;;;;;19.87;14.13;;;;;;;;;;5072552;28;20246;-86
2021/01/20 01:39:04;;;;;;;18.50;12.13;;;;;;;;;;5072695;28;20177;-87
2021/01/20 01:41:30;;;;;;;14.47;12.33;;;;;;;;;;5072501;28;20708;-87
2021/01/20 01:43:58;;;;;;;19.93;15.93;;;;;;;;;;5072602;28;20182;-86
2021/01/20 01:46:28;;;;;;;14.57;11.93;;;;;;;;;;5072387;28;20262;-86
2021/01/20 01:48:58;;;;;;;14.47;12.03;;;;;;;;;;5072106;28;20558;-87
2021/01/20 01:51:30;;;;;;;17.23;14.23;;;;;;;;;;5073814;28;20557;-87
2021/01/20 01:53:56;;;;;;;21.43;15.40;;;;;;;;;;5072553;28;20204;-87
2021/01/20 01:56:29;;;;;;;15.63;11.53;;;;;;;;;;5072502;28;20224;-87
2021/01/20 01:58:56;;;;;;;22.17;14.83;;;;;;;;;;5072331;28;20181;-87
2021/01/20 02:01:27;;;;;;;19.50;15.10;;;;;;;;;;5073100;28;20204;-87
2021/01/20 02:03:58;;;;;;;17.33;13.03;;;;;;;;;;5073772;28;20177;-87
2021/01/20 02:06:26;;;;;;;16.80;14.37;;;;;;;;;;5072170;28;20267;-87
2021/01/20 02:09:00;;;;;;;21.17;16.90;;;;;;;;;;5073692;28;20182;-87
2021/01/20 02:11:39;;;;;;;18.23;14.57;;;;;;;;;;5073416;28;20654;-87
2021/01/20 02:14:15;;;;;;;25.10;16.93;;;;;;;;;;5072055;28;20260;-87
2021/01/20 02:16:51;;;;;;;16.30;11.97;;;;;;;;;;5071969;28;20639;-87
2021/01/20 02:19:23;;;;;;;18.07;14.90;;;;;;;;;;5073055;28;20520;-87
2021/01/20 02:22:08;;;;;;;16.73;12.23;;;;;;;;;;5073174;28;20209;-86
2021/01/20 02:24:42;;;;;;;14.90;12.47;;;;;;;;;;5073557;28;20562;-87
2021/01/20 02:27:21;;;;;;;22.67;17.37;;;;;;;;;;5072009;28;20640;-87
2021/01/20 02:29:59;;;;;;;22.30;14.17;;;;;;;;;;5072581;28;20172;-87
2021/01/20 02:32:26;;;;;;;16.63;11.60;;;;;;;;;;5073244;28;20186;-87
2021/01/20 02:34:55;;;;;;;23.20;17.27;;;;;;;;;;5072044;28;20582;-87
2021/01/20 02:37:25;;;;;;;22.07;15.17;;;;;;;;;;5071837;28;20680;-87
2021/01/20 02:39:53;;;;;;;15.33;12.00;;;;;;;;;;5072037;28;20207;-87
2021/01/20 02:42:19;;;;;;;16.47;13.60;;;;;;;;;;5071650;28;20270;-86
2021/01/20 02:44:51;;;;;;;18.67;13.60;;;;;;;;;;5073031;28;20178;-87
2021/01/20 02:47:17;;;;;;;17.27;12.23;;;;;;;;;;5071808;28;20576;-87
2021/01/20 02:49:51;;;;;;;19.37;13.90;;;;;;;;;;5071792;28;20183;-87
2021/01/20 02:52:26;;;;;;;20.60;15.17;;;;;;;;;;5071848;28;20667;-87
2021/01/20 02:54:58;;;;;;;13.27;10.90;;;;;;;;;;5071804;28;20302;-87
2021/01/20 02:57:26;;;;;;;16.20;11.67;;;;;;;;;;5071721;28;20201;-86
2021/01/20 02:59:54;;;;;;;23.20;17.67;;;;;;;;;;5076251;28;20203;-86
2021/01/20 03:02:21;;;;;;;24.63;14.77;;;;;;;;;;5075477;28;20607;-87
2021/01/20 03:04:49;;;;;;;23.47;17.67;;;;;;;;;;5075572;28;20691;-86
2021/01/20 03:07:18;;;;;;;19.43;12.10;;;;;;;;;;5075928;28;20259;-87
2021/01/20 03:09:51;;;;;;;17.40;13.77;;;;;;;;;;5075824;28;20691;-87
2021/01/20 03:12:29;;;;;;;15.97;12.70;;;;;;;;;;5076946;28;20197;-87
2021/01/20 03:15:01;;;;;;;22.37;15.90;;;;;;;;;;5076630;28;20641;-87
2021/01/20 03:17:31;;;;;;;22.67;16.43;;;;;;;;;;5075363;28;20672;-87
2021/01/20 03:20:05;;;;;;;22.00;14.33;;;;;;;;;;5075345;28;20186;-87
2021/01/20 03:22:35;;;;;;;22.43;14.00;;;;;;;;;;5075255;28;20203;-87
2021/01/20 03:25:10;;;;;;;17.70;14.00;;;;;;;;;;5075097;28;20618;-87
2021/01/20 03:27:42;;;;;;;16.70;12.37;;;;;;;;;;5076376;28;20211;-87
2021/01/20 03:30:15;;;;;;;17.00;14.43;;;;;;;;;;5076581;28;20184;-87
2021/01/20 03:32:49;;;;;;;24.53;18.67;;;;;;;;;;5074964;28;20179;-87
2021/01/20 03:35:21;;;;;;;26.33;20.53;;;;;;;;;;5076452;28;20168;-87
2021/01/20 03:37:53;;;;;;;23.20;20.37;;;;;;;;;;5074816;28;20199;-86
2021/01/20 03:40:21;;;;;;;32.83;22.13;;;;;;;;;;5074818;28;20293;-86
2021/01/20 03:42:57;;;;;;;24.13;18.67;;;;;;;;;;5075188;28;20207;-87
2021/01/20 03:45:25;;;;;;;27.70;18.27;;;6.30;99.90;;;;;;5075591;28;20295;-87
2021/01/20 03:47:57;;;;;;;27.53;21.83;;;6.20;99.90;;;;;;5074644;28;20276;-87
2021/01/20 03:50:24;;;;;;;30.37;21.47;;;6.20;99.90;;;;;;5075233;28;20172;-87
2021/01/20 03:52:51;;;;;;;29.67;20.20;;;6.20;99.90;;;;;;5075940;28;20180;-87
2021/01/20 03:55:20;;;;;;;29.27;23.07;;;6.10;99.90;;;;;;5074614;28;20192;-86
2021/01/20 03:57:46;;;;;;;29.50;22.87;;;6.10;99.90;;;;;;5075777;28;20209;-86
2021/01/20 04:00:14;;;;;;;29.70;21.67;;;6.20;99.90;;;;;;5075766;28;20656;-86
2021/01/20 04:02:51;;;;;;;34.13;22.67;;;6.20;99.90;;;;;;5074402;28;20758;-87
2021/01/20 04:05:26;;;;;;;27.97;21.37;;;6.20;99.90;;;;;;5075686;28;20176;-86
2021/01/20 04:07:56;;;;;;;21.00;16.77;;;6.20;99.90;;;;;;5074403;28;20218;-87
2021/01/20 04:10:31;;;;;;;26.17;18.47;;;6.20;99.90;;;;;;5073985;28;20270;-87
2021/01/20 04:13:04;;;;;;;25.00;14.60;;;6.20;99.90;;;;;;5074303;28;20189;-87
2021/01/20 04:15:31;;;;;;;25.47;19.07;;;6.20;99.90;;;;;;5074354;28;20255;-87
2021/01/20 04:17:57;;;;;;;23.47;17.23;;;6.20;99.90;;;;;;5074123;28;20290;-87
2021/01/20 04:20:29;;;;;;;20.10;14.70;;;6.20;99.90;;;;;;5074186;28;20210;-87
2021/01/20 04:23:01;;;;;;;20.73;17.37;;;6.20;99.90;;;;;;5075477;28;20196;-87
2021/01/20 04:25:31;;;;;;;20.07;14.27;;;6.20;99.90;;;;;;5074042;28;20665;-87
2021/01/20 04:28:02;;;;;;;18.50;13.73;;;6.30;99.90;;;;;;5157838;22;20229;-88
2021/01/20 04:30:33;;;;;;;24.80;15.40;;;6.20;99.90;;;;;;5074159;28;20179;-88
2021/01/20 04:33:14;;;;;;;18.87;13.90;;;6.20;99.90;;;;;;5073990;28;20234;-88
2021/01/20 04:35:43;;;;;;;15.50;13.13;;;6.20;99.90;;;;;;5073994;28;20208;-88
2021/01/20 04:38:09;;;;;;;21.13;15.00;;;6.20;99.90;;;;;;5075059;28;20199;-88
2021/01/20 04:40:41;;;;;;;15.57;11.93;;;6.20;99.90;;;;;;5073944;28;20179;-88
2021/01/20 04:43:16;;;;;;;18.13;14.17;;;6.20;99.90;;;;;;5073771;28;20207;-88
2021/01/20 04:45:42;;;;;;;17.70;12.37;;;6.20;99.90;;;;;;5074354;28;20700;-88
2021/01/20 04:48:13;;;;;;;21.77;10.63;;;6.20;99.90;;;;;;5073784;28;20191;-88
2021/01/20 04:50:49;;;;;;;19.30;13.23;;;6.20;99.90;;;;;;5073755;28;20242;-88
2021/01/20 04:53:26;;;;;;;17.60;14.17;;;6.20;99.90;;;;;;5074866;28;20625;-88
2021/01/20 04:56:01;;;;;;;17.67;12.07;;;6.30;99.90;;;;;;5073520;28;20555;-88
2021/01/20 04:58:39;;;;;;;13.17;11.40;;;6.20;99.90;;;;;;5074753;28;20190;-88
2021/01/20 05:01:20;;;;;;;15.37;12.50;;;6.20;99.90;;;;;;5073700;28;20228;-88
2021/01/20 05:03:56;;;;;;;22.40;14.70;;;6.20;99.90;;;;;;5073504;28;20560;-88
2021/01/20 05:06:24;;;;;;;18.33;15.57;;;6.20;99.90;;;;;;5073666;28;20179;-88
2021/01/20 05:08:57;;;;;;;16.33;11.17;;;6.20;99.90;;;;;;5073659;28;20195;-88
2021/01/20 05:11:48;;;;;;;18.17;13.97;;;6.20;99.90;;;;;;5074543;28;20202;-88
2021/01/20 05:14:21;;;;;;;14.50;11.30;;;6.30;99.90;;;;;;5073280;28;20225;-88
2021/01/20 05:16:52;;;;;;;18.20;14.53;;;6.30;99.90;;;;;;5074398;28;20732;-88
2021/01/20 05:19:41;;;;;;;11.07;8.20;;;6.20;99.90;;;;;;5074317;28;20671;-89
2021/01/20 05:22:18;;;;;;;18.70;11.17;;;6.30;99.90;;;;;;5073602;28;20192;-88
2021/01/20 05:25:01;;;;;;;13.87;11.43;;;6.20;99.90;;;;;;5073319;28;20172;-88
2021/01/20 05:27:31;;;;;;;11.87;10.57;;;6.20;99.90;;;;;;5072780;28;20647;-89
2021/01/20 05:30:10;;;;;;;15.77;11.40;;;6.30;99.90;;;;;;5073068;28;20172;-88
2021/01/20 05:32:53;;;;;;;10.93;7.60;;;6.20;99.90;;;;;;5074129;28;20176;-88
2021/01/20 05:35:23;;;;;;;19.83;10.77;;;6.20;99.90;;;;;;5073155;28;20176;-88
2021/01/20 05:37:55;;;;;;;15.27;9.53;;;6.30;99.90;;;;;;5072670;28;20195;-88
2021/01/20 05:40:26;;;;;;;20.17;10.43;;;6.30;99.90;;;;;;5072682;28;20171;-88
2021/01/20 05:42:57;;;;;;;19.33;10.77;;;6.30;99.90;;;;;;5073251;28;20227;-88
2021/01/20 05:45:43;;;;;;;18.17;11.67;;;6.30;99.90;;;;;;5073974;28;20164;-88
2021/01/20 05:48:15;;;;;;;8.37;6.83;;;6.30;99.90;;;;;;5073811;28;20589;-88
2021/01/20 05:50:55;;;;;;;12.70;8.13;;;6.40;99.90;;;;;;5072568;28;20282;-88
2021/01/20 05:53:26;;;;;;;14.37;7.63;;;6.40;99.90;;;;;;5072470;28;20180;-88
2021/01/20 05:56:05;;;;;;;9.90;6.53;;;6.30;99.90;;;;;;5073100;28;20196;-89
2021/01/20 05:58:44;;;;;;;9.47;7.30;;;6.30;99.90;;;;;;5072319;28;20192;-88
2021/01/20 06:01:18;;;;;;;13.30;7.80;;;6.30;99.90;;;;;;5073788;28;20183;-88
2021/01/20 06:03:53;;;;;;;9.80;8.17;;;6.30;99.90;;;;;;5073739;28;20221;-88
2021/01/20 06:06:25;;;;;;;10.00;7.50;;;6.30;99.90;;;;;;5072399;28;20171;-88
2021/01/20 06:09:01;;;;;;;13.00;8.03;;;6.20;99.90;;;;;;5072432;28;20196;-88
2021/01/20 06:11:31;;;;;;;9.10;6.90;;;6.20;99.90;;;;;;5073496;28;20179;-88
2021/01/20 06:14:07;;;;;;;13.70;7.30;;;6.30;99.90;;;;;;5072247;28;20181;-88
2021/01/20 06:16:41;;;;;;;12.10;7.83;;;6.20;99.90;;;;;;5073554;28;20159;-88
2021/01/20 06:19:08;;;;;;;10.57;7.03;;;6.20;99.90;;;;;;5072205;28;20190;-88
2021/01/20 06:21:41;;;;;;;10.20;7.60;;;6.20;99.90;;;;;;5073337;28;20187;-88
2021/01/20 06:24:25;;;;;;;14.93;8.37;;;6.20;99.90;;;;;;5072443;28;20229;-88
2021/01/20 06:27:05;;;;;;;8.30;6.23;;;6.20;99.90;;;;;;5072729;28;20620;-88
2021/01/20 06:29:37;;;;;;;10.03;6.87;;;6.30;99.90;;;;;;5072260;28;20208;-88
2021/01/20 06:32:04;;;;;;;9.30;6.97;;;6.20;99.90;;;;;;5073465;28;20175;-88
2021/01/20 06:34:49;;;;;;;16.73;9.40;;;6.20;99.90;;;;;;5071817;28;20672;-88
2021/01/20 06:37:37;;;;;;;10.53;8.07;;;6.20;99.90;;;;;;5071940;28;20182;-88
2021/01/20 06:40:37;;;;;;;10.00;7.10;;;6.20;99.90;;;;;;5072066;28;20180;-88
2021/01/20 06:43:33;;;;;;;10.43;7.80;;;6.20;99.90;;;;;;5071943;28;20219;-88
2021/01/20 06:46:17;;;;;;;9.00;7.97;;;6.20;99.90;;;;;;5072903;28;20164;-88
2021/01/20 06:48:52;;;;;;;12.53;7.83;;;6.20;99.90;;;;;;5073092;28;20195;-88
2021/01/20 06:51:19;;;;;;;15.93;10.13;;;6.20;99.90;;;;;;5073142;28;20224;-88
2021/01/20 06:54:04;;;;;;;13.70;11.23;;;6.10;99.90;;;;;;5071879;28;20182;-88
2021/01/20 06:56:41;;;;;;;20.73;11.17;;;6.10;99.90;;;;;;5073014;28;20167;-88
2021/01/20 06:59:27;;;;;;;16.77;10.93;;;6.10;99.90;;;;;;5073079;28;20187;-88
2021/01/20 07:02:10;;;;;;;9.43;6.57;;;6.00;99.90;;;;;;5073099;28;20203;-88
2021/01/20 07:04:45;;;;;;;14.17;9.47;;;5.90;99.90;;;;;;5072179;28;20579;-88
2021/01/20 07:07:14;;;;;;;10.70;7.87;;;6.00;99.90;;;;;;5071833;28;20666;-88
2021/01/20 07:09:50;;;;;;;9.73;6.93;;;5.90;99.90;;;;;;5071784;28;20191;-88
2021/01/20 07:12:30;;;;;;;12.63;9.77;;;6.00;99.90;;;;;;5071722;28;20711;-88
2021/01/20 07:14:56;;;;;;;16.43;10.80;;;5.90;99.90;;;;;;5072220;28;20674;-89
2021/01/20 07:17:23;;;;;;;14.13;7.60;;;5.90;99.90;;;;;;5072858;28;20175;-88
2021/01/20 07:19:51;;;;;;;11.10;8.33;;;5.90;99.90;;;;;;5071818;28;20186;-88
2021/01/20 07:22:19;;;;;;;10.87;7.80;;;5.90;99.90;;;;;;5071439;28;20218;-88
2021/01/20 07:24:51;;;;;;;8.80;6.73;;;5.90;99.90;;;;;;5071639;28;20176;-88
2021/01/20 07:27:21;;;;;;;12.77;8.07;;;5.90;99.90;;;;;;5071560;28;20233;-88
2021/01/20 07:29:55;;;;;;;11.03;7.47;;;5.90;99.90;;;;;;5072613;28;20194;-88
2021/01/20 07:32:33;;;;;;;11.73;7.97;;;5.90;99.90;;;;;;5072112;28;20570;-88
2021/01/20 07:35:01;;;;;;;13.87;7.97;;;5.90;99.90;;;;;;5071822;28;20552;-88
2021/01/20 07:37:28;;;;;;;15.70;9.60;;;5.90;99.90;;;;;;5071368;28;20183;-88
2021/01/20 07:40:07;;;;;;;11.37;8.80;;;5.90;99.90;;;;;;5072977;28;20171;-88
2021/01/20 07:42:48;;;;;;;16.47;9.70;;;5.90;99.90;;;;;;5072590;28;20679;-88
2021/01/20 07:45:41;;;;;;;10.63;8.53;;;6.00;99.90;;;;;;5072024;28;20171;-88
2021/01/20 07:48:13;;;;;;;11.47;7.77;;;6.00;99.90;;;;;;5074812;28;20217;-89
2021/01/20 07:50:49;;;;;;;9.83;7.10;;;5.90;99.90;;;;;;5074883;28;20230;-88
2021/01/20 07:53:21;;;;;;;17.00;10.10;;;6.00;99.90;;;;;;5076095;28;20179;-88
2021/01/20 07:55:57;;;;;;;10.77;7.97;;;6.10;99.90;;;;;;5074697;28;20201;-88
2021/01/20 07:58:31;;;;;;;12.33;9.33;;;6.10;99.90;;;;;;5074614;28;20628;-88
2021/01/20 08:01:08;;;;;;;15.47;8.13;;;6.10;99.90;;;;;;5074573;28;20735;-88
2021/01/20 08:03:46;;;;;;;12.33;9.27;;;6.10;99.90;;;;;;5074746;28;20199;-88
2021/01/20 08:06:17;;;;;;;12.83;9.07;;;6.20;99.90;;;;;;5074714;28;20217;-88
2021/01/20 08:09:01;;;;;;;12.90;7.73;;;6.20;99.90;;;;;;5075752;28;20612;-88
2021/01/20 08:11:35;;;;;;;10.27;8.07;;;6.20;99.90;;;;;;5074502;28;20207;-88
2021/01/20 08:14:09;;;;;;;13.43;8.67;;;6.20;99.90;;;;;;5074703;28;20181;-88
2021/01/20 08:16:41;;;;;;;12.20;8.00;;;6.30;99.90;;;;;;5074396;28;20566;-88
2021/01/20 08:19:17;;;;;;;14.10;8.77;;;6.40;99.90;;;;;;5075497;28;20214;-88
2021/01/20 08:21:53;;;;;;;12.57;7.60;;;6.40;99.90;;;;;;5074320;28;20671;-88
2021/01/20 08:24:23;;;;;;;12.57;6.70;;;6.50;99.90;;;;;;5074279;28;20289;-88
2021/01/20 08:27:04;;;;;;;6.83;5.97;;;6.50;99.90;;;;;;5075345;28;20181;-88
2021/01/20 08:29:53;;;;;;;7.87;6.67;;;6.50;99.90;;;;;;5074527;28;20610;-88
2021/01/20 08:32:29;;;;;;;10.00;6.30;;;6.50;99.90;;;;;;5074606;28;20730;-88
2021/01/20 08:35:01;;;;;;;10.97;6.17;;;6.50;99.90;;;;;;5075577;28;20187;-88
2021/01/20 08:37:39;;;;;;;6.30;5.07;;;6.50;99.90;;;;;;5075091;28;20265;-88
2021/01/20 08:40:21;;;;;;;13.27;6.90;;;6.50;99.90;;;;;;5075466;28;20235;-88
2021/01/20 08:42:50;;;;;;;11.90;6.07;;;6.70;99.90;;;;;;5073905;28;20214;-88
2021/01/20 08:45:26;;;;;;;10.20;7.50;;;6.70;99.90;;;;;;5073906;28;20177;-88
2021/01/20 08:48:01;;;;;;;8.10;6.13;;;6.70;99.90;;;;;;5075279;28;20191;-88
2021/01/20 08:50:39;;;;;;;7.87;5.40;;;6.80;99.90;;;;;;5073811;28;20183;-88
2021/01/20 08:53:37;;;;;;;10.10;6.73;;;6.80;99.90;;;;;;5073856;28;20182;-88
2021/01/20 08:56:09;;;;;;;11.63;6.17;;;6.80;99.90;;;;;;5074862;28;20190;-88
2021/01/20 08:58:51;;;;;;;6.40;4.83;;;6.90;99.90;;;;;;5074685;28;20230;-88
2021/01/20 09:01:30;;;;;;;10.30;6.17;;;7.00;99.90;;;;;;5073559;28;20185;-88
2021/01/20 09:04:06;;;;;;;12.43;6.60;;;7.00;99.90;;;;;;5074344;28;20524;-88
2021/01/20 09:06:40;;;;;;;5.93;4.70;;;7.00;99.90;;;;;;5073362;28;20264;-88
2021/01/20 09:09:14;;;;;;;10.10;5.47;;;7.00;99.90;;;;;;5074667;28;20190;-88
2021/01/20 09:11:51;;;;;;;6.30;4.80;;;7.00;99.90;;;;;;5074391;28;20177;-88
2021/01/20 09:14:23;;;;;;;7.57;4.40;;;7.10;99.90;;;;;;5073472;28;20267;-88
2021/01/20 09:16:53;;;;;;;4.97;4.30;;;7.10;99.90;;;;;;5073232;28;20556;-88
2021/01/20 09:19:24;;;;;;;6.40;4.77;;;7.20;99.90;;;;;;5074295;28;20194;-88
2021/01/20 09:21:57;;;;;;;5.07;4.27;;;7.20;99.90;;;;;;5073056;28;20206;-88
2021/01/20 09:24:29;;;;;;;6.60;5.20;;;7.30;99.90;;;;;;5073987;28;20177;-89
2021/01/20 09:27:01;;;;;;;4.87;4.30;;;7.40;99.90;;;;;;5073100;28;20178;-88
2021/01/20 09:29:34;;;;;;;6.70;4.13;;;7.40;99.90;;;;;;5073083;28;20573;-88
2021/01/20 09:32:06;;;;;;;7.70;4.83;;;7.50;99.90;;;;;;5074184;28;20199;-88
2021/01/20 09:34:38;;;;;;;9.67;4.10;;;7.50;99.90;;;;;;5074744;28;20564;-88
2021/01/20 09:37:11;;;;;;;5.33;4.03;;;7.60;99.90;;;;;;5072772;28;20209;-88
2021/01/20 09:39:38;;;;;;;7.27;4.10;;;7.60;99.90;;;;;;5072697;28;20312;-89
2021/01/20 09:42:08;;;;;;;7.97;4.40;;;7.50;99.90;;;;;;5073766;28;20209;-88
2021/01/20 09:44:44;;;;;;;4.73;3.33;;;7.60;99.90;;;;;;5072907;28;20221;-88
2021/01/20 09:47:21;;;;;;;5.60;4.27;;;7.60;99.90;;;;;;5072909;28;20181;-88
2021/01/20 09:49:52;;;;;;;4.37;3.73;;;7.60;99.90;;;;;;5074083;28;20163;-88
2021/01/20 09:52:27;;;;;;;5.97;3.80;;;7.70;99.90;;;;;;5072532;28;20178;-88
2021/01/20 09:55:01;;;;;;;4.90;3.37;;;7.70;99.90;;;;;;5072510;28;20180;-88
2021/01/20 09:57:35;;;;;;;5.20;3.40;;;7.70;99.90;;;;;;5072377;28;20185;-88
2021/01/20 10:00:06;;;;;;;5.23;4.17;;;7.70;99.90;;;;;;5072420;28;20528;-89
2021/01/20 10:02:38;;;;;;;5.47;4.20;;;7.80;99.90;;;;;;5072595;28;20578;-89
2021/01/20 10:05:11;;;;;;;4.00;3.23;;;7.80;99.90;;;;;;5073159;28;20174;-88
2021/01/20 10:07:44;;;;;;;4.87;3.47;;;7.80;99.90;;;;;;5072365;28;20559;-88
2021/01/20 10:10:13;;;;;;;4.53;3.53;;;7.80;99.90;;;;;;5073390;28;20175;-88
2021/01/20 10:12:45;;;;;;;3.97;3.23;;;7.70;99.90;;;;;;5072322;28;20589;-88
2021/01/20 10:15:12;;;;;;;5.90;4.13;;;7.60;99.90;;;;;;5073483;28;20170;-88
2021/01/20 10:17:39;;;;;;;7.17;3.87;;;7.60;99.90;;;;;;5073744;28;20229;-88
2021/01/20 10:20:07;;;;;;;2.93;2.43;;;7.60;99.90;;;;;;5072253;28;20188;-89
2021/01/20 10:22:33;;;;;;;7.33;4.33;;;7.60;99.90;;;;;;5072425;28;20658;-88
2021/01/20 10:25:00;;;;;;;6.37;4.37;;;7.70;99.90;;;;;;5073389;28;20280;-89
2021/01/20 10:27:26;;;;;;;4.17;2.90;;;7.70;99.90;;;;;;5071979;28;20595;-88
2021/01/20 10:29:52;;;;;;;3.47;2.70;;;7.80;99.90;;;;;;5072016;28;20189;-88
2021/01/20 10:32:19;;;;;;;4.43;3.37;;;7.70;99.90;;;;;;5072367;28;20182;-88
2021/01/20 10:34:45;;;;;;;4.60;3.60;;;7.80;99.90;;;;;;5073528;28;20220;-88
2021/01/20 10:37:19;;;;;;;3.43;2.90;;;7.90;99.90;;;;;;5092935;23;22092;-88
2021/01/20 10:39:51;;;;;;;3.90;2.93;;;7.90;99.90;;;;;;5071902;28;20259;-86
2021/01/20 10:42:23;;;;;;;5.60;2.73;;;8.00;99.90;;;;;;5071789;28;20214;-87
2021/01/20 10:44:56;;;;;;;5.23;3.83;;;8.10;99.90;;;;;;5073487;28;20174;-88
2021/01/20 10:47:22;;;;;;;5.30;2.77;;;8.10;99.90;;;;;;5073039;28;20682;-87
2021/01/20 10:49:51;;;;;;;5.30;3.03;;;8.10;99.90;;;;;;5073073;28;20185;-87
2021/01/20 10:52:23;;;;;;;4.47;2.53;;;8.10;99.90;;;;;;5073122;28;20560;-87
2021/01/20 10:54:49;;;;;;;3.90;2.80;;;8.10;99.90;;;;;;5071848;28;20175;-87
2021/01/20 10:57:20;;;;;;;4.53;3.23;;;8.10;99.90;;;;;;5072947;28;20274;-87
2021/01/20 10:59:57;;;;;;;5.70;3.53;;;8.20;99.90;;;;;;5073002;28;20250;-88
2021/01/20 11:02:29;;;;;;;4.17;2.50;;;8.30;99.90;;;;;;5071783;28;20261;-87
2021/01/20 11:05:00;;;;;;;5.13;3.13;;;8.30;99.90;;;;;;5073226;28;20171;-87
2021/01/20 11:07:33;;;;;;;6.97;2.70;;;8.30;99.90;;;;;;5071560;28;20636;-87
2021/01/20 11:10:05;;;;;;;3.77;2.73;;;8.30;99.90;;;;;;5071629;28;20186;-87
2021/01/20 11:12:32;;;;;;;3.17;2.60;;;8.40;99.90;;;;;;5072892;28;20177;-86
2021/01/20 11:14:58;;;;;;;3.87;2.67;;;8.40;99.90;;;;;;5071743;28;20186;-88
2021/01/20 11:17:30;;;;;;;4.90;2.90;;;8.40;99.90;;;;;;5071567;28;20286;-87
2021/01/20 11:20:01;;;;;;;8.63;3.20;;;8.40;99.90;;;;;;5071893;28;20263;-87
2021/01/20 11:22:34;;;;;;;5.63;2.93;;;8.40;99.90;;;;;;5075240;28;20209;-87
2021/01/20 11:25:08;;;;;;;3.60;2.60;;;8.40;99.90;;;;;;5075507;28;20185;-88
2021/01/20 11:27:34;;;;;;;4.30;3.07;;;8.50;99.90;;;;;;5075347;28;20571;-87
2021/01/20 11:30:01;;;;;;;5.53;3.50;;;8.50;99.90;;;;;;5075294;28;20544;-88
2021/01/20 11:32:27;;;;;;;4.67;3.20;;;8.60;99.90;;;;;;5076045;28;20548;-88
2021/01/20 11:34:53;;;;;;;3.57;2.87;;;8.60;99.90;;;;;;5075543;28;20236;-87
2021/01/20 11:37:19;;;;;;;3.07;2.37;;;8.60;99.90;;;;;;5074799;28;20686;-88
2021/01/20 11:39:47;;;;;;;4.00;3.07;;;8.60;99.90;;;;;;5076890;28;20658;-88
2021/01/20 11:42:14;;;;;;;7.30;2.90;;;8.70;99.90;;;;;;5074857;28;20698;-88
2021/01/20 11:44:41;;;;;;;3.87;2.77;;;8.70;99.90;;;;;;5076062;28;20658;-88
2021/01/20 11:47:08;;;;;;;5.37;3.10;;;8.70;99.90;;;;;;5074769;28;20176;-87
2021/01/20 11:49:34;;;;;;;3.33;2.70;;;8.70;99.90;;;;;;5075163;28;20195;-88
2021/01/20 11:52:10;;;;;;;3.37;2.50;;;8.70;99.90;;;;;;5074903;28;20175;-88
2021/01/20 11:54:36;;;;;;;3.77;2.80;;;8.80;99.90;;;;;;5074812;28;20178;-88
2021/01/20 11:57:02;;;;;;;3.47;2.60;;;8.80;99.90;;;;;;5074776;28;20213;-88
2021/01/20 11:59:32;;;;;;;2.30;2.10;;;8.80;99.90;;;;;;5074902;28;20286;-88
2021/01/20 12:02:04;;;;;;;6.93;3.60;;;8.80;99.90;;;;;;5075505;28;20626;-89
2021/01/20 12:04:36;;;;;;;2.97;2.53;;;8.80;99.90;;;;;;5075271;28;20195;-88
2021/01/20 12:07:05;;;;;;;6.73;2.77;;;8.90;99.90;;;;;;5074613;28;20186;-87
2021/01/20 12:09:35;;;;;;;3.53;2.50;;;8.90;99.90;;;;;;5075729;28;20245;-88
2021/01/20 12:12:10;;;;;;;2.47;2.27;;;8.80;99.90;;;;;;5075727;28;20176;-88
2021/01/20 12:14:38;;;;;;;2.30;2.10;;;8.90;99.90;;;;;;5074430;28;20175;-88
2021/01/20 12:17:07;;;;;;;3.27;2.93;;;8.90;99.90;;;;;;5074455;28;20183;-89
2021/01/20 12:19:36;;;;;;;3.53;2.53;;;8.80;99.90;;;;;;5074499;28;20179;-89
2021/01/20 12:22:05;;;;;;;3.27;2.43;;;8.90;99.90;;;;;;5074217;28;20686;-88
2021/01/20 12:24:33;;;;;;;3.80;2.33;;;8.90;99.90;;;;;;5074195;28;20175;-88
2021/01/20 12:27:00;;;;;;;4.37;2.90;;;8.90;99.90;;;;;;5074229;28;20176;-87
2021/01/20 12:29:28;;;;;;;4.60;3.00;;;8.90;99.90;;;;;;5074412;28;20172;-87
2021/01/20 12:32:01;;;;;;;2.67;2.47;;;8.90;99.90;;;;;;5074887;28;20551;-89
2021/01/20 12:34:34;;;;;;;3.07;2.70;;;9.00;99.90;;;;;;5074307;28;20646;-89
2021/01/20 12:37:07;;;;;;;4.60;3.03;;;9.00;99.90;;;;;;5074053;28;20640;-88
2021/01/20 12:39:38;;;;;;;3.33;2.53;;;9.00;99.90;;;;;;5074515;28;20205;-89
2021/01/20 12:42:07;;;;;;;3.13;2.83;;;9.00;99.90;;;;;;5073809;28;20203;-89
2021/01/20 12:44:33;;;;;;;2.93;2.63;;;9.10;99.90;;;;;;5073866;28;20178;-89
2021/01/20 12:47:02;;;;;;;4.67;2.47;;;9.10;99.90;;;;;;5074999;28;20168;-89
2021/01/20 12:49:35;;;;;;;3.50;2.77;;;9.00;99.90;;;;;;5075044;28;20167;-88
2021/01/20 12:52:10;;;;;;;2.30;2.10;;;9.00;99.90;;;;;;5073963;28;20635;-88
2021/01/20 12:54:36;;;;;;;3.13;2.83;;;9.00;99.90;;;;;;5073632;28;20175;-87
2021/01/20 12:57:08;;;;;;;4.43;2.60;;;8.90;99.90;;;;;;5075036;28;20183;-88
2021/01/20 12:59:41;;;;;;;3.13;2.13;;;8.90;99.90;;;;;;5073398;28;20662;-88
2021/01/20 13:02:15;;;;;;;3.83;2.80;;;8.90;99.90;;;;;;5074948;28;20276;-88
2021/01/20 13:04:42;;;;;;;3.03;2.37;;;8.90;99.90;;;;;;5073344;28;20182;-88
2021/01/20 13:07:15;;;;;;;3.17;2.60;;;9.00;99.90;;;;;;5074539;28;20270;-88
2021/01/20 13:09:50;;;;;;;5.63;2.70;;;8.90;99.90;;;;;;5073364;28;20545;-88
2021/01/20 13:12:21;;;;;;;2.83;2.53;;;8.90;99.90;;;;;;5073330;28;20189;-88
2021/01/20 13:14:53;;;;;;;5.03;2.60;;;8.90;99.90;;;;;;5073591;28;20178;-89
2021/01/20 13:17:27;;;;;;;6.10;2.77;;;8.90;99.90;;;;;;5073071;28;20564;-88
2021/01/20 13:20:01;;;;;;;3.10;2.17;;;8.90;99.90;;;;;;5073114;28;20202;-88
2021/01/20 13:22:31;;;;;;;3.20;2.33;;;8.90;99.90;;;;;;5074588;28;20226;-88
2021/01/20 13:25:05;;;;;;;3.77;2.53;;;8.90;99.90;;;;;;5073143;28;20589;-88
2021/01/20 13:27:40;;;;;;;2.40;2.20;;;8.90;99.90;;;;;;5072947;28;20616;-87
2021/01/20 13:30:14;;;;;;;5.10;2.83;;;8.90;99.90;;;;;;5072876;28;20174;-88
2021/01/20 13:32:47;;;;;;;4.27;2.33;;;8.90;99.90;;;;;;5073786;28;20186;-88
2021/01/20 13:35:19;;;;;;;6.73;2.63;;;8.90;99.90;;;;;;5072803;28;20206;-88
2021/01/20 13:37:45;;;;;;;4.50;2.30;;;8.90;99.90;;;;;;5074087;28;20207;-88
2021/01/20 13:40:16;;;;;;;3.33;2.43;;;8.90;99.90;;;;;;5073475;28;20583;-88